Time;durP1;ratioP1;P1;durP2;ratioP2;P2;SDS_P1;SDS_P2;PMS_P1;PMS_P2;Temp;Humidity;BMP_temperature;BMP_pressure;BME280_temperature;BME280_humidity;BME280_pressure;Samples;Min_cycle;Max_cycle;Signal;HPM_P1;HPM_P2
2022/05/15 00:02:03;;;;;;;0.10;0.10;;;;;;;22.18;41.52;101608.78;5094575;28;20071;-30
2022/05/15 00:04:29;;;;;;;0.10;0.10;;;;;;;22.16;41.49;101611.84;5114721;28;20055;-33
2022/05/15 00:06:55;;;;;;;0.10;0.10;;;;;;;22.17;41.63;101604.38;5114457;28;20079;-29
2022/05/15 00:09:21;;;;;;;0.10;0.10;;;;;;;22.17;41.61;101607.13;5121083;28;20040;-30
2022/05/15 00:11:47;;;;;;;0.10;0.10;;;;;;;22.17;41.57;101599.63;5113996;28;20085;-30
2022/05/15 00:14:15;;;;;;;0.10;0.10;;;;;;;22.17;41.61;101601.59;5115075;28;20067;-31
2022/05/15 00:16:41;;;;;;;0.10;0.10;;;;;;;22.18;41.42;101611.56;5113663;28;20171;-31
2022/05/15 00:19:07;;;;;;;0.10;0.10;;;;;;;22.16;41.55;101600.75;5116491;28;20073;-29
2022/05/15 00:21:33;;;;;;;0.10;0.10;;;;;;;22.17;41.49;101602.41;5118402;28;20481;-30
2022/05/15 00:23:59;;;;;;;0.10;0.10;;;;;;;22.17;41.33;101598.81;5081598;28;20082;-29
2022/05/15 00:26:25;;;;;;;0.10;0.10;;;;;;;22.17;41.63;101601.59;5118799;28;20045;-29
2022/05/15 00:28:51;;;;;;;0.10;0.10;;;;;;;22.17;41.55;101601.59;5112258;28;20055;-30
2022/05/15 00:31:17;;;;;;;0.10;0.10;;;;;;;22.15;41.54;101596.34;5097148;28;20404;-30
2022/05/15 00:33:44;;;;;;;0.10;0.10;;;;;;;22.15;41.60;101596.34;5116074;28;20072;-30
2022/05/15 00:36:10;;;;;;;0.10;0.10;;;;;;;22.15;41.48;101581.59;5095279;28;20134;-29
2022/05/15 00:38:36;;;;;;;0.10;0.10;;;;;;;22.16;41.54;101597.16;5112546;28;20047;-31
2022/05/15 00:41:02;;;;;;;0.10;0.10;;;;;;;22.16;41.53;101592.44;5119148;28;20486;-30
2022/05/15 00:43:46;;;;;;;0.10;0.10;;;;;;;22.16;41.45;101592.44;5114059;28;20071;-29
2022/05/15 00:46:16;;;;;;;0.10;0.10;;;;;;;22.16;41.51;101589.66;5118255;28;20078;-31
2022/05/15 00:48:42;;;;;;;0.10;0.10;;;;;;;22.17;41.53;101596.03;5113288;28;20172;-32
2022/05/15 00:51:14;;;;;;;0.10;0.10;;;;;;;22.17;41.47;101598.81;5094232;28;20130;-30
2022/05/15 00:53:40;;;;;;;0.10;0.10;;;;;;;22.15;41.46;101599.09;5110582;28;20109;-28
2022/05/15 00:56:07;;;;;;;0.10;0.10;;;;;;;22.17;41.58;101596.03;5112993;28;20043;-30
2022/05/15 00:58:35;;;;;;;0.10;0.10;;;;;;;22.16;41.54;101603.53;5097312;28;20098;-29
2022/05/15 01:01:03;;;;;;;0.10;0.10;;;;;;;22.17;41.54;101607.13;5099601;28;20158;-29
2022/05/15 01:03:29;;;;;;;0.10;0.10;;;;;;;22.18;41.54;101608.78;5117537;28;20048;-31
2022/05/15 01:05:56;;;;;;;0.10;0.10;;;;;;;22.16;41.50;101598.00;5114829;28;20051;-30
2022/05/15 01:08:23;;;;;;;0.10;0.10;;;;;;;22.15;41.60;101601.03;5116980;28;20130;-30
2022/05/15 01:10:52;;;;;;;0.10;0.10;;;;;;;22.16;41.60;101597.16;5110281;28;20126;-30
2022/05/15 01:13:18;;;;;;;0.10;0.10;;;;;;;22.15;41.50;101593.56;5114725;28;20172;-30
2022/05/15 01:15:45;;;;;;;0.10;0.10;;;;;;;22.15;41.44;101598.25;5114969;28;20560;-29
2022/05/15 01:18:11;;;;;;;0.10;0.10;;;;;;;22.15;41.56;101603.81;5113521;28;20090;-29
2022/05/15 01:20:38;;;;;;;0.10;0.10;;;;;;;22.15;41.77;101601.88;5117793;28;20145;-29
2022/05/15 01:23:04;;;;;;;0.10;0.10;;;;;;;22.15;41.44;101599.09;5099092;28;20047;-30
2022/05/15 01:25:33;;;;;;;0.15;0.15;;;;;;;22.15;41.42;101601.88;5117254;28;20093;-29
2022/05/15 01:28:09;;;;;;;0.10;0.10;;;;;;;22.16;41.68;101602.72;5109817;28;20075;-31
2022/05/15 01:30:37;;;;;;;0.10;0.10;;;;;;;22.14;41.59;101600.19;5094882;28;20586;-29
2022/05/15 01:33:03;;;;;;;0.10;0.10;;;;;;;22.15;41.54;101601.88;5111185;28;20051;-30
2022/05/15 01:35:29;;;;;;;0.10;0.10;;;;;;;22.15;41.60;101595.47;5092003;28;20209;-29
2022/05/15 01:37:57;;;;;;;0.10;0.10;;;;;;;22.16;41.52;101599.94;5109077;28;20055;-30
2022/05/15 01:40:23;;;;;;;0.10;0.10;;;;;;;22.16;41.51;101594.38;5114366;28;20393;-29
2022/05/15 01:42:49;;;;;;;0.10;0.10;;;;;;;22.15;41.66;101595.47;5099998;28;20086;-30
2022/05/15 01:45:15;;;;;;;0.10;0.10;;;;;;;22.15;41.53;101601.03;5113997;28;20048;-29
2022/05/15 01:47:41;;;;;;;0.10;0.10;;;;;;;22.14;41.51;101600.19;5116085;28;20133;-30
2022/05/15 01:50:07;;;;;;;0.10;0.10;;;;;;;22.15;41.60;101598.25;5107937;28;20126;-29
2022/05/15 01:52:34;;;;;;;0.10;0.10;;;;;;;22.16;41.49;101597.16;5114843;28;21266;-29
2022/05/15 01:54:59;;;;;;;0.10;0.10;;;;;;;22.15;41.52;101601.88;5110260;28;20067;-30
2022/05/15 01:57:25;;;;;;;0.10;0.10;;;;;;;22.15;41.64;101598.25;5117296;28;20673;-30
2022/05/15 01:59:51;;;;;;;0.10;0.10;;;;;;;22.15;41.62;101599.09;5116759;28;20043;-29
2022/05/15 02:02:16;;;;;;;0.10;0.10;;;;;;;22.16;41.54;101606.31;5114752;28;20043;-28
2022/05/15 02:04:42;;;;;;;0.10;0.10;;;;;;;22.15;41.52;101601.88;5114061;28;20159;-30
2022/05/15 02:07:08;;;;;;;0.10;0.10;;;;;;;22.15;41.37;101601.03;5118557;28;20424;-30
2022/05/15 02:09:33;;;;;;;0.10;0.10;;;;;;;22.15;41.96;101604.66;5119529;28;20049;-29
2022/05/15 02:11:59;;;;;;;0.10;0.10;;;;;;;22.14;41.64;101600.19;5116662;28;20064;-30
2022/05/15 02:14:25;;;;;;;0.10;0.10;;;;;;;22.14;41.57;101602.16;5118423;28;20081;-31
2022/05/15 02:16:51;;;;;;;0.10;0.10;;;;;;;22.15;41.66;101606.56;5116035;28;20478;-29
2022/05/15 02:19:17;;;;;;;0.10;0.10;;;;;;;22.15;41.59;101595.47;5114613;28;20048;-30
2022/05/15 02:21:44;;;;;;;0.10;0.10;;;;;;;22.13;41.60;101592.19;5121660;28;20133;-30
2022/05/15 02:24:10;;;;;;;0.10;0.10;;;;;;;22.13;41.61;101593.00;5112638;28;20479;-30
2022/05/15 02:26:37;;;;;;;0.10;0.10;;;;;;;22.13;41.57;101598.53;5098688;28;20150;-28
2022/05/15 02:29:04;;;;;;;0.10;0.10;;;;;;;22.13;41.56;101595.78;5114657;28;20591;-29
2022/05/15 02:31:29;;;;;;;0.10;0.10;;;;;;;22.14;41.68;101594.66;5113823;28;20165;-29
2022/05/15 02:33:55;;;;;;;0.10;0.10;;;;;;;22.14;41.63;101594.66;5099771;28;20043;-30
2022/05/15 02:36:21;;;;;;;0.10;0.10;;;;;;;22.14;41.59;101594.66;5119623;28;20047;-29
2022/05/15 02:38:46;;;;;;;0.10;0.10;;;;;;;22.13;41.69;101593.00;5119511;28;20054;-29
2022/05/15 02:41:12;;;;;;;0.10;0.10;;;;;;;22.14;41.52;101593.81;5115550;28;20134;-29
2022/05/15 02:43:38;;;;;;;0.10;0.10;;;;;;;22.15;41.55;101595.47;5118399;28;20039;-30
2022/05/15 02:46:03;;;;;;;0.13;0.13;;;;;;;22.14;41.56;101593.81;5113721;28;20044;-30
2022/05/15 02:51:16;;;;;;;0.20;0.20;;;;;;;22.13;41.62;101586.63;5103769;28;20541;-29
2022/05/15 02:53:43;;;;;;;0.10;0.10;;;;;;;22.13;41.63;101589.41;5095872;28;20039;-28
2022/05/15 02:56:13;;;;;;;0.10;0.10;;;;;;;22.13;41.61;101590.22;5115661;28;20528;-29
2022/05/15 02:58:38;;;;;;;0.10;0.10;;;;;;;22.13;41.58;101592.19;5117096;28;20399;-31
2022/05/15 03:01:05;;;;;;;0.10;0.10;;;;;;;22.14;41.67;101596.59;5116495;28;20039;-30
2022/05/15 03:03:30;;;;;;;0.10;0.10;;;;;;;22.13;41.79;101601.31;5095439;28;20043;-29
2022/05/15 03:05:56;;;;;;;0.10;0.10;;;;;;;22.14;41.62;101597.44;5118825;28;20504;-30
2022/05/15 03:08:22;;;;;;;0.10;0.10;;;;;;;22.13;41.61;101592.19;5121445;28;20050;-29
2022/05/15 03:10:48;;;;;;;0.10;0.10;;;;;;;22.13;41.60;101592.19;5114530;27;20391;-29
2022/05/15 03:13:13;;;;;;;0.10;0.10;;;;;;;22.12;41.54;101588.56;5115302;28;20056;-30
2022/05/15 03:15:40;;;;;;;0.10;0.10;;;;;;;22.12;41.69;101584.94;5101435;28;20429;-31
2022/05/15 03:18:06;;;;;;;0.10;0.10;;;;;;;22.12;41.69;101593.25;5117017;28;20097;-29
2022/05/15 03:20:32;;;;;;;0.10;0.10;;;;;;;22.12;41.66;101594.13;5123517;28;20039;-30
2022/05/15 03:22:59;;;;;;;0.10;0.10;;;;;;;22.12;41.65;101588.56;5119547;28;20043;-30
2022/05/15 03:25:26;;;;;;;0.10;0.10;;;;;;;22.13;41.62;101592.19;5118909;28;20043;-30
2022/05/15 03:27:52;;;;;;;0.00;0.00;;;;;;;22.12;41.64;101591.34;5113794;28;20070;-29
2022/05/15 03:30:18;;;;;;;0.10;0.10;;;;;;;22.12;41.65;101588.56;5116317;28;20375;-29
2022/05/15 03:32:44;;;;;;;0.10;0.10;;;;;;;22.12;41.63;101593.25;5113639;28;20046;-28
2022/05/15 03:35:11;;;;;;;0.10;0.10;;;;;;;22.12;41.70;101588.56;5115425;28;20069;-27
2022/05/15 03:37:38;;;;;;;0.10;0.10;;;;;;;22.12;41.64;101583.03;5117050;28;20476;-28
2022/05/15 03:40:05;;;;;;;0.10;0.10;;;;;;;22.12;41.61;101584.94;5099960;28;20119;-29
2022/05/15 03:42:31;;;;;;;0.10;0.10;;;;;;;22.12;41.61;101584.94;5116928;28;20086;-29
2022/05/15 03:44:57;;;;;;;0.10;0.10;;;;;;;22.11;41.65;101578.56;5117550;28;20122;-29
2022/05/15 03:47:23;;;;;;;0.10;0.10;;;;;;;22.12;41.62;101579.41;5115717;28;20045;-30
2022/05/15 03:49:49;;;;;;;0.10;0.10;;;;;;;22.11;41.70;101584.13;5120829;28;20456;-30
2022/05/15 03:52:16;;;;;;;0.10;0.10;;;;;;;22.10;41.64;101576.88;5113744;28;20051;-31
2022/05/15 03:54:42;;;;;;;0.10;0.10;;;;;;;22.12;41.63;101573.84;5115718;28;20539;-29
2022/05/15 03:57:07;;;;;;;0.10;0.10;;;;;;;22.11;41.62;101573.03;5121193;28;20078;-29
2022/05/15 03:59:37;;;;;;;0.10;0.10;;;;;;;22.11;41.87;101575.78;5109194;28;20039;-31
2022/05/15 04:02:05;;;;;;;0.10;0.10;;;;;;;22.11;41.56;101574.97;5093384;28;20490;-30
2022/05/15 04:04:31;;;;;;;0.10;0.10;;;;;;;22.11;41.63;101574.97;5116257;28;20087;-30
2022/05/15 04:06:58;;;;;;;0.10;0.10;;;;;;;22.12;41.64;101571.06;5117322;28;21209;-30
2022/05/15 04:09:24;;;;;;;0.15;0.13;;;;;;;22.11;41.67;101561.09;5116683;28;20107;-29
2022/05/15 04:11:49;;;;;;;0.10;0.10;;;;;;;22.11;41.58;101567.47;5115548;28;20035;-30
2022/05/15 04:14:15;;;;;;;0.10;0.10;;;;;;;22.11;41.63;101567.47;5121576;28;20085;-29
2022/05/15 04:16:40;;;;;;;0.10;0.10;;;;;;;22.10;41.67;101571.34;5112869;28;20082;-30
2022/05/15 04:19:06;;;;;;;0.10;0.10;;;;;;;22.12;41.66;101568.31;5114407;28;20454;-31
2022/05/15 04:21:37;;;;;;;0.10;0.10;;;;;;;22.12;41.58;101576.63;5118519;27;20047;-30
2022/05/15 04:24:05;;;;;;;0.10;0.10;;;;;;;22.12;41.77;101571.06;5115211;28;20044;-29
2022/05/15 04:26:31;;;;;;;0.10;0.10;;;;;;;22.11;41.59;101563.88;5114286;28;20087;-31
2022/05/15 04:28:56;;;;;;;0.10;0.10;;;;;;;22.11;41.73;101574.97;5113434;28;20070;-30
2022/05/15 04:31:22;;;;;;;0.10;0.10;;;;;;;22.10;41.70;101581.59;5121245;28;20073;-29
2022/05/15 04:33:48;;;;;;;0.10;0.10;;;;;;;22.11;41.55;101577.75;5116832;28;20044;-31
2022/05/15 04:36:13;;;;;;;0.10;0.10;;;;;;;22.10;41.73;101576.06;5117544;28;20060;-30
2022/05/15 04:38:39;;;;;;;0.10;0.10;;;;;;;22.10;41.69;101579.66;5112211;28;20043;-29
2022/05/15 04:41:05;;;;;;;0.10;0.10;;;;;;;22.11;41.55;101586.06;5116399;28;20062;-30
2022/05/15 04:43:31;;;;;;;0.10;0.10;;;;;;;22.10;41.63;101587.16;5116007;28;20530;-30
2022/05/15 04:45:57;;;;;;;0.10;0.10;;;;;;;22.11;41.66;101588.84;5115926;28;20492;-30
2022/05/15 04:48:22;;;;;;;0.10;0.10;;;;;;;22.10;41.67;101596.31;5115340;28;20680;-30
2022/05/15 04:50:48;;;;;;;0.10;0.10;;;;;;;22.10;41.78;101590.75;5115777;28;20044;-31
2022/05/15 04:53:13;;;;;;;0.10;0.10;;;;;;;22.11;41.75;101586.06;5117907;28;20051;-29
2022/05/15 04:55:39;;;;;;;0.10;0.10;;;;;;;22.10;41.65;101592.69;5115376;28;20048;-29
2022/05/15 04:58:05;;;;;;;0.10;0.10;;;;;;;22.10;41.65;101593.53;5114696;28;20043;-31
2022/05/15 05:00:30;;;;;;;0.10;0.10;;;;;;;22.10;41.67;101599.06;5117635;28;20039;-30
2022/05/15 05:02:56;;;;;;;0.10;0.10;;;;;;;22.10;41.70;101595.47;5115685;28;20048;-32
2022/05/15 05:05:22;;;;;;;0.10;0.10;;;;;;;22.10;41.71;101599.06;5113617;28;20043;-30
2022/05/15 05:07:48;;;;;;;0.10;0.10;;;;;;;22.09;41.63;101591.88;5115039;28;20047;-30
2022/05/15 05:10:15;;;;;;;0.10;0.10;;;;;;;22.10;41.69;101601.84;5114864;28;20497;-30
2022/05/15 05:12:41;;;;;;;0.10;0.10;;;;;;;22.10;41.71;101601.03;5115173;28;20047;-29
2022/05/15 05:15:08;;;;;;;0.10;0.10;;;;;;;22.10;41.58;101612.13;5120254;28;20051;-29
2022/05/15 05:17:34;;;;;;;0.10;0.10;;;;;;;22.09;41.64;101597.41;5111520;28;20040;-30
2022/05/15 05:20:00;;;;;;;0.10;0.10;;;;;;;22.09;41.59;101594.66;5111443;28;20082;-31
2022/05/15 05:22:25;;;;;;;0.10;0.10;;;;;;;22.08;41.72;101598.53;5109945;28;20039;-29
2022/05/15 05:24:51;;;;;;;0.10;0.10;;;;;;;22.09;41.74;101599.38;5115520;28;20093;-31
2022/05/15 05:27:17;;;;;;;0.10;0.10;;;;;;;22.09;41.62;101597.41;5113732;28;20069;-31
2022/05/15 05:29:43;;;;;;;0.10;0.10;;;;;;;22.09;41.71;101602.97;5111747;28;20050;-30
2022/05/15 05:32:09;;;;;;;0.10;0.10;;;;;;;22.10;41.71;101595.47;5116168;28;20491;-30
2022/05/15 05:34:35;;;;;;;0.10;0.10;;;;;;;22.10;41.72;101601.03;5115967;28;20051;-29
2022/05/15 05:37:00;;;;;;;0.10;0.10;;;;;;;22.09;41.72;101597.41;5115680;28;20228;-30
2022/05/15 05:39:29;;;;;;;0.10;0.10;;;;;;;22.09;41.68;101608.53;5121971;28;20481;-30
2022/05/15 05:41:56;;;;;;;0.10;0.10;;;;;;;22.08;41.48;101601.31;5115291;28;20120;-31
2022/05/15 05:44:23;;;;;;;0.10;0.10;;;;;;;22.09;41.77;101610.47;5119171;28;20467;-30
2022/05/15 05:46:52;;;;;;;0.10;0.10;;;;;;;22.09;41.68;101607.69;5112237;28;20182;-29
2022/05/15 05:49:18;;;;;;;0.10;0.10;;;;;;;22.08;41.75;101606.03;5117688;28;20051;-30
2022/05/15 05:51:45;;;;;;;0.10;0.10;;;;;;;22.08;41.64;101601.31;5097923;28;20039;-30
2022/05/15 05:54:11;;;;;;;0.10;0.10;;;;;;;22.08;41.65;101604.09;5116512;28;20067;-30
2022/05/15 05:56:37;;;;;;;0.10;0.10;;;;;;;22.07;41.77;101602.44;5116607;28;20142;-30
2022/05/15 05:59:02;;;;;;;0.10;0.10;;;;;;;22.09;41.75;101602.16;5122075;28;20531;-31
2022/05/15 06:01:28;;;;;;;0.10;0.10;;;;;;;22.09;41.77;101604.91;5120981;28;20094;-30
2022/05/15 06:06:39;;;;;;;0.10;0.10;;;;;;;22.08;41.89;101606.88;5108270;28;20079;-30
2022/05/15 06:09:05;;;;;;;0.10;0.10;;;;;;;22.08;41.56;101601.31;5120794;28;20382;-29
2022/05/15 06:11:30;;;;;;;0.10;0.10;;;;;;;22.08;41.73;101617.13;5123896;28;20169;-31
2022/05/15 06:13:56;;;;;;;0.10;0.10;;;;;;;22.07;41.68;101610.75;5111695;28;20424;-31
2022/05/15 06:16:22;;;;;;;0.10;0.10;;;;;;;22.07;41.80;101608.00;5117446;28;20039;-30
2022/05/15 06:18:47;;;;;;;0.10;0.10;;;;;;;22.06;41.36;101614.63;5116064;28;20056;-30
2022/05/15 06:21:14;;;;;;;0.10;0.10;;;;;;;22.08;41.59;101620.75;5120560;28;20050;-30
2022/05/15 06:23:41;;;;;;;0.10;0.10;;;;;;;22.08;41.68;101614.38;5118452;28;20129;-29
2022/05/15 06:26:07;;;;;;;0.10;0.10;;;;;;;22.07;41.69;101616.31;5114575;28;20086;-30
2022/05/15 06:28:34;;;;;;;0.10;0.10;;;;;;;22.07;41.80;101613.53;5117365;28;20049;-30
2022/05/15 06:31:01;;;;;;;0.10;0.10;;;;;;;22.09;41.66;101607.69;5114874;28;20123;-30
2022/05/15 06:33:27;;;;;;;0.10;0.10;;;;;;;22.07;41.73;101601.63;5122494;28;20040;-30
2022/05/15 06:35:52;;;;;;;0.10;0.10;;;;;;;22.07;41.51;101601.63;5118431;28;20046;-30
2022/05/15 06:38:18;;;;;;;0.10;0.10;;;;;;;22.08;41.75;101597.72;5117297;28;20050;-30
2022/05/15 06:40:44;;;;;;;0.10;0.10;;;;;;;22.07;41.81;101612.72;5116800;28;20512;-29
2022/05/15 06:43:10;;;;;;;0.10;0.10;;;;;;;22.07;41.68;101596.06;5097336;28;20097;-29
2022/05/15 06:45:36;;;;;;;0.10;0.10;;;;;;;22.06;41.67;101592.44;5118050;28;20075;-30
2022/05/15 06:48:02;;;;;;;0.10;0.10;;;;;;;22.06;41.74;101595.22;5111395;28;20780;-29
2022/05/15 06:50:28;;;;;;;0.10;0.10;;;;;;;22.07;41.74;101587.75;5116765;28;20076;-30
2022/05/15 06:52:53;;;;;;;0.10;0.10;;;;;;;22.05;41.86;101594.38;5111550;28;20095;-29
2022/05/15 06:55:20;;;;;;;0.10;0.10;;;;;;;22.05;41.74;101591.59;5117023;28;20036;-29
2022/05/15 06:57:48;;;;;;;0.10;0.10;;;;;;;22.07;41.83;101596.06;5121251;28;20070;-31
2022/05/15 07:00:17;;;;;;;0.10;0.10;;;;;;;22.07;41.60;101596.06;5120634;28;20477;-29
2022/05/15 07:02:43;;;;;;;0.10;0.10;;;;;;;22.07;41.74;101590.53;5119218;28;20310;-29
2022/05/15 07:05:10;;;;;;;0.10;0.10;;;;;;;22.06;41.81;101595.22;5114574;28;20051;-29
2022/05/15 07:07:37;;;;;;;0.10;0.10;;;;;;;22.06;41.83;101589.66;5114828;28;20082;-29
2022/05/15 07:10:05;;;;;;;0.10;0.10;;;;;;;22.06;41.68;101595.22;5115453;28;20077;-31
2022/05/15 07:12:30;;;;;;;0.10;0.10;;;;;;;22.06;41.75;101600.75;5114994;28;20130;-30
2022/05/15 07:14:56;;;;;;;0.10;0.10;;;;;;;22.05;41.70;101591.59;5115787;28;20440;-29
2022/05/15 07:17:21;;;;;;;0.10;0.10;;;;;;;22.06;41.73;101592.44;5112488;28;20067;-29
2022/05/15 07:19:47;;;;;;;0.10;0.10;;;;;;;22.06;41.76;101589.66;5111705;28;20054;-30
2022/05/15 07:22:14;;;;;;;0.10;0.10;;;;;;;22.06;41.76;101597.97;5115309;28;20096;-30
2022/05/15 07:24:40;;;;;;;0.10;0.10;;;;;;;22.06;41.70;101603.53;5097040;28;20051;-30
2022/05/15 07:27:07;;;;;;;0.10;0.10;;;;;;;22.05;41.81;101605.47;5116643;28;20415;-29
2022/05/15 07:29:36;;;;;;;0.10;0.10;;;;;;;22.05;41.62;101599.94;5115476;28;20122;-30
2022/05/15 07:32:06;;;;;;;0.10;0.10;;;;;;;22.06;41.68;101597.97;5095513;28;20091;-30
2022/05/15 07:34:32;;;;;;;0.10;0.10;;;;;;;22.07;41.69;101598.84;5116532;28;20529;-30
2022/05/15 07:36:58;;;;;;;0.10;0.10;;;;;;;22.05;41.79;101608.25;5114566;28;20071;-29
2022/05/15 07:39:24;;;;;;;0.10;0.10;;;;;;;22.05;41.75;101602.69;5118323;28;20047;-30
2022/05/15 07:41:49;;;;;;;0.10;0.10;;;;;;;22.05;41.76;101599.09;5118072;28;20604;-30
2022/05/15 07:44:16;;;;;;;0.10;0.10;;;;;;;22.05;41.71;101597.16;5119078;28;20048;-30
2022/05/15 07:46:41;;;;;;;0.10;0.10;;;;;;;22.06;41.70;101597.97;5097341;28;20088;-30
2022/05/15 07:49:08;;;;;;;0.10;0.10;;;;;;;22.06;41.77;101595.22;5113049;28;20485;-29
2022/05/15 07:51:34;;;;;;;0.10;0.10;;;;;;;22.05;41.71;101593.56;5114763;28;20138;-29
2022/05/15 07:54:00;;;;;;;0.10;0.10;;;;;;;22.05;41.78;101588.00;5117139;28;20773;-29
2022/05/15 07:56:26;;;;;;;0.10;0.10;;;;;;;22.07;41.68;101587.75;5114607;28;20047;-29
2022/05/15 07:58:52;;;;;;;0.10;0.10;;;;;;;22.05;41.75;101588.84;5116529;28;20138;-30
2022/05/15 08:01:18;;;;;;;0.10;0.10;;;;;;;22.05;41.75;101586.06;5100116;28;20126;-30
2022/05/15 08:03:44;;;;;;;0.10;0.10;;;;;;;22.05;41.67;101590.78;5117136;28;20465;-30
2022/05/15 08:08:58;;;;;;;0.10;0.10;;;;;;;22.05;41.76;101577.75;5099531;28;20134;-30
2022/05/15 08:11:28;;;;;;;0.10;0.10;;;;;;;22.06;41.74;101573.03;5114381;28;20122;-30
2022/05/15 08:13:55;;;;;;;0.10;0.10;;;;;;;22.05;41.78;101571.38;5116613;28;20118;-29
2022/05/15 08:16:22;;;;;;;0.10;0.10;;;;;;;22.04;41.66;101576.09;5117605;28;20458;-29
2022/05/15 08:24:22;;;;;;;0.10;0.10;;;;;;;22.05;41.70;101565.81;5099506;28;20039;-31
2022/05/15 08:26:48;;;;;;;0.10;0.10;;;;;;;22.04;41.70;101556.66;5115432;28;20359;-30
2022/05/15 08:29:14;;;;;;;0.30;0.30;;;;;;;22.05;41.62;101566.66;5115113;28;20043;-29
2022/05/15 08:31:40;;;;;;;0.10;0.10;;;;;;;22.04;41.80;101565.00;5113777;28;20381;-30
2022/05/15 08:34:07;;;;;;;0.10;0.10;;;;;;;22.05;41.61;101557.50;5112134;28;20050;-30
2022/05/15 08:36:33;;;;;;;0.10;0.10;;;;;;;22.05;41.68;101554.72;5097718;28;20497;-31
2022/05/15 08:38:59;;;;;;;0.10;0.10;;;;;;;22.04;41.70;101551.13;5115851;28;20071;-29
2022/05/15 08:41:51;;;;;;;0.10;0.10;;;;;;;22.05;41.71;101547.22;5114485;28;20481;-28
2022/05/15 08:44:22;;;;;;;0.10;0.10;;;;;;;22.05;41.77;101544.47;5117163;28;20070;-30
2022/05/15 08:49:52;;;;;;;0.10;0.10;;;;;;;22.05;41.70;101540.84;5164792;27;20197;-28
2022/05/15 08:52:23;;;;;;;0.10;0.10;;;;;;;22.05;41.82;101543.63;5135430;27;20069;-28
2022/05/15 08:54:56;;;;;;;0.10;0.10;;;;;;;22.04;41.72;101534.47;5166452;27;20081;-28
2022/05/15 08:57:33;;;;;;;0.10;0.10;;;;;;;22.04;41.76;101537.25;5147421;27;20171;-28
2022/05/15 08:59:59;;;;;;;0.10;0.10;;;;;;;22.04;41.66;101530.88;5147907;27;20100;-28
2022/05/15 09:02:25;;;;;;;0.10;0.10;;;;;;;22.04;41.72;101534.47;5166476;27;20404;-27
2022/05/15 09:04:52;;;;;;;0.10;0.10;;;;;;;22.04;41.72;101528.13;5167312;27;20045;-28
2022/05/15 09:07:51;;;;;;;0.10;0.10;;;;;;;22.04;41.71;101528.13;5165526;27;20046;-27
2022/05/15 09:10:38;;;;;;;0.10;0.10;;;;;;;22.04;41.70;101522.56;5133583;27;20494;-27
2022/05/15 09:13:11;;;;;;;0.10;0.10;;;;;;;22.04;41.78;101533.66;5164272;27;20078;-27
2022/05/15 09:15:41;;;;;;;0.10;0.10;;;;;;;22.05;41.74;101538.91;5144749;27;20129;-27
2022/05/15 09:18:10;;;;;;;0.10;0.10;;;;;;;22.04;41.82;101533.66;5164128;27;20388;-27
2022/05/15 09:20:59;;;;;;;0.10;0.10;;;;;;;22.05;41.73;101535.31;5164726;27;20211;-27
2022/05/15 09:23:34;;;;;;;0.10;0.10;;;;;;;22.04;41.67;101534.47;5164844;27;20077;-28
2022/05/15 09:26:15;;;;;;;0.10;0.10;;;;;;;22.03;41.80;101535.59;5146862;27;20484;-29
2022/05/15 09:28:45;;;;;;;0.10;0.10;;;;;;;22.04;41.71;101537.25;5164417;27;20141;-28
2022/05/15 09:31:23;;;;;;;0.10;0.10;;;;;;;22.04;41.74;101533.66;5165126;27;20066;-27
2022/05/15 09:33:54;;;;;;;0.10;0.10;;;;;;;22.04;41.76;101533.66;5165414;27;20046;-28
2022/05/15 09:36:24;;;;;;;0.20;0.20;;;;;;;22.04;41.80;101533.66;5165671;27;20311;-27
2022/05/15 09:39:08;;;;;;;0.10;0.10;;;;;;;22.04;41.63;101528.13;5164834;27;20085;-27
2022/05/15 09:44:24;;;;;;;0.10;0.10;;;;;;;22.04;41.80;101520.63;5128357;27;20173;-27
2022/05/15 09:49:48;;;;;;;0.10;0.10;;;;;;;22.04;41.85;101522.56;5162514;27;20198;-28
2022/05/15 09:52:35;;;;;;;0.10;0.10;;;;;;;22.04;41.61;101512.28;5164051;27;20121;-28
2022/05/15 09:55:12;;;;;;;0.10;0.10;;;;;;;22.03;41.80;101505.09;5146912;27;20046;-30
2022/05/15 09:57:38;;;;;;;0.10;0.10;;;;;;;22.04;41.78;101500.38;5139534;27;20087;-29
2022/05/15 10:00:09;;;;;;;0.10;0.10;;;;;;;22.04;41.75;101503.97;5139911;27;20039;-27
2022/05/15 10:02:41;;;;;;;0.10;0.10;;;;;;;22.03;41.78;101504.28;5141257;27;20084;-28
2022/05/15 10:05:20;;;;;;;0.10;0.10;;;;;;;22.03;41.74;101502.31;5164522;27;20397;-27
2022/05/15 10:08:10;;;;;;;0.10;0.10;;;;;;;22.03;41.85;101507.88;5141726;27;20125;-27
2022/05/15 10:10:44;;;;;;;0.10;0.10;;;;;;;22.04;41.62;101503.16;5130247;27;20051;-28
2022/05/15 10:13:15;;;;;;;0.10;0.10;;;;;;;22.03;41.86;101507.88;5162618;27;20126;-28
2022/05/15 10:15:44;;;;;;;0.10;0.10;;;;;;;22.04;41.84;101509.53;5159799;27;20469;-27
2022/05/15 10:18:18;;;;;;;0.10;0.10;;;;;;;22.04;41.71;101509.53;5156988;27;20047;-27
2022/05/15 10:20:46;;;;;;;0.10;0.10;;;;;;;22.04;41.74;101506.75;5162212;27;20125;-29
2022/05/15 10:23:15;;;;;;;0.00;0.00;;;;;;;22.04;41.71;101503.97;5163359;27;20082;-27
2022/05/15 10:25:45;;;;;;;0.10;0.10;;;;;;;22.05;41.78;101499.25;5161790;27;20133;-27
2022/05/15 10:28:39;;;;;;;0.10;0.10;;;;;;;22.05;41.82;101500.06;5162477;27;20070;-27
2022/05/15 10:31:27;;;;;;;0.10;0.10;;;;;;;22.04;41.74;101503.97;5149027;27;20608;-27
2022/05/15 10:33:56;;;;;;;0.10;0.10;;;;;;;22.03;41.76;101494.00;5148313;27;20038;-28
2022/05/15 10:36:51;;;;;;;0.10;0.10;;;;;;;22.05;41.84;101496.47;5144310;27;20409;-28
2022/05/15 10:39:41;;;;;;;0.10;0.10;;;;;;;22.04;41.76;101494.81;5146858;27;20134;-28
2022/05/15 10:42:39;;;;;;;0.10;0.10;;;;;;;22.05;41.76;101488.16;5147970;27;20081;-28
2022/05/15 10:48:13;;;;;;;0.17;0.17;;;;;;;22.05;41.74;101485.38;5172330;27;20217;-27
2022/05/15 10:51:00;;;;;;;0.10;0.10;;;;;;;22.05;41.75;101479.84;5137547;27;20074;-27
2022/05/15 10:59:43;;;;;;;0.10;0.10;;;;;;;22.04;41.77;101469.88;5136361;27;20093;-28
2022/05/15 11:05:21;;;;;;;0.10;0.10;;;;;;;22.04;41.83;101458.78;5173620;27;20202;-28
2022/05/15 11:08:11;;;;;;;0.20;0.20;;;;;;;22.05;41.81;101457.66;5154151;27;20473;-28
2022/05/15 11:11:06;;;;;;;0.10;0.10;;;;;;;22.03;41.83;101463.50;5136675;27;20514;-29
2022/05/15 11:13:47;;;;;;;0.10;0.10;;;;;;;22.04;41.69;101461.53;5143472;27;20525;-28
2022/05/15 11:16:45;;;;;;;0.10;0.10;;;;;;;22.04;41.85;101453.22;5136972;27;20085;-29
2022/05/15 11:19:35;;;;;;;0.10;0.10;;;;;;;22.04;41.72;101456.81;5125254;27;20050;-28
2022/05/15 11:22:14;;;;;;;0.10;0.10;;;;;;;22.05;41.81;101454.88;5136334;27;20510;-28
2022/05/15 11:25:19;;;;;;;0.10;0.10;;;;;;;22.05;41.89;101452.09;5155705;27;20137;-28
2022/05/15 11:27:51;;;;;;;0.10;0.10;;;;;;;22.04;41.86;101442.97;5134970;27;20560;-28
2022/05/15 11:30:25;;;;;;;0.10;0.10;;;;;;;22.04;41.85;101437.41;5133995;27;21244;-27
2022/05/15 11:35:33;;;;;;;0.10;0.10;;;;;;;22.04;41.75;101431.03;5178101;27;20198;-28
2022/05/15 11:40:51;;;;;;;0.10;0.10;;;;;;;22.05;41.82;101416.88;5172716;27;20550;-27
2022/05/15 11:43:33;;;;;;;0.10;0.10;;;;;;;22.05;41.60;101416.03;5154391;27;20073;-26
2022/05/15 11:46:08;;;;;;;0.10;0.10;;;;;;;22.05;41.75;101418.81;5136959;27;20552;-27
2022/05/15 11:48:51;;;;;;;0.10;0.10;;;;;;;22.04;41.70;101415.22;5136227;27;20034;-29
2022/05/15 11:53:59;;;;;;;0.10;0.10;;;;;;;22.04;41.72;101412.44;5156323;27;20207;-28
2022/05/15 11:56:46;;;;;;;0.10;0.10;;;;;;;22.04;41.75;101404.13;5144078;27;20215;-29
2022/05/15 11:59:24;;;;;;;0.10;0.10;;;;;;;22.05;41.73;101397.47;5128704;27;20051;-27
2022/05/15 12:01:54;;;;;;;0.10;0.10;;;;;;;22.05;41.74;101399.41;5144434;27;20089;-27
2022/05/15 12:05:00;;;;;;;0.10;0.10;;;;;;;22.05;41.83;101403.00;5143447;27;20078;-27
2022/05/15 12:07:32;;;;;;;0.10;0.10;;;;;;;22.07;41.73;101404.69;5130472;27;20070;-28
2022/05/15 12:09:58;;;;;;;0.10;0.10;;;;;;;22.05;41.92;101393.84;5126862;27;20145;-28
2022/05/15 12:15:05;;;;;;;0.10;0.10;;;;;;;22.04;41.72;101384.72;5178115;27;20155;-30
2022/05/15 12:17:34;;;;;;;0.10;0.10;;;;;;;22.05;41.81;101377.22;5152881;27;20142;-28
2022/05/15 12:20:06;;;;;;;0.10;0.10;;;;;;;22.05;41.66;101380.81;5152558;27;20062;-27